createdAt,value
2022-09-23T00:02:47.769Z,9.14
2022-09-23T00:07:49.599Z,9.04
2022-09-23T00:12:51.754Z,9.04
2022-09-23T00:17:53.485Z,8.97
2022-09-23T00:22:55.081Z,8.86
2022-09-23T00:27:57.346Z,8.92
2022-09-23T00:32:58.934Z,8.88
2022-09-23T00:38:00.522Z,8.81
2022-09-23T00:43:03.743Z,8.76
2022-09-23T00:48:06.186Z,8.67
2022-09-23T00:53:10.699Z,8.52
2022-09-23T00:58:17.828Z,8.46
2022-09-23T01:03:20.228Z,8.45
2022-09-23T01:08:24.468Z,8.40
2022-09-23T01:13:44.074Z,8.41
2022-09-23T01:18:53.176Z,8.30
2022-09-23T01:24:07.996Z,8.25
2022-09-23T01:29:45.869Z,8.20
2022-09-23T01:34:58.945Z,8.14
2022-09-23T01:40:11.124Z,8.08
2022-09-23T01:45:29.151Z,8.05
2022-09-23T01:50:57.126Z,8.05
2022-09-23T01:56:05.365Z,8.02
2022-09-23T02:01:08.479Z,8.05
2022-09-23T02:06:28.803Z,8.04
2022-09-23T02:11:36.411Z,8.01
2022-09-23T02:17:09.336Z,7.89
2022-09-23T02:22:24.799Z,7.83
2022-09-23T02:27:40.635Z,7.83
2022-09-23T02:33:05.797Z,7.61
2022-09-23T02:38:30.487Z,7.53
2022-09-23T02:44:08.745Z,7.49
2022-09-23T02:49:12.767Z,7.49
2022-09-23T02:54:18.744Z,7.44
2022-09-23T02:59:23.029Z,7.45
2022-09-23T03:04:33.574Z,7.50
2022-09-23T03:09:42.288Z,7.56
2022-09-23T03:15:02.124Z,7.59
2022-09-23T03:20:22.950Z,7.55
2022-09-23T03:25:26.649Z,7.53
2022-09-23T03:30:29.749Z,7.42
2022-09-23T03:35:54.815Z,7.38
2022-09-23T03:40:59.926Z,7.36
2022-09-23T03:46:02.511Z,7.34
2022-09-23T03:51:22.127Z,7.25
2022-09-23T03:56:23.704Z,7.20
2022-09-23T04:01:25.871Z,7.22
2022-09-23T04:06:27.873Z,7.24
2022-09-23T04:11:30.060Z,7.15
2022-09-23T04:16:31.914Z,7.10
2022-09-23T04:21:33.743Z,7.04
2022-09-23T04:26:36.234Z,7.00
2022-09-23T04:31:38.647Z,7.00
2022-09-23T04:36:40.836Z,6.99
2022-09-23T04:41:43.308Z,6.93
2022-09-23T04:46:48.117Z,6.91
2022-09-23T04:51:49.940Z,6.93
2022-09-23T04:56:52.462Z,6.95
2022-09-23T05:01:55.424Z,6.92
2022-09-23T05:07:02.221Z,6.88
2022-09-23T05:12:05.182Z,6.92
2022-09-23T05:17:06.901Z,6.95
2022-09-23T05:22:08.482Z,7.02
2022-09-23T05:27:10.404Z,7.19
2022-09-23T05:32:12.208Z,7.36
2022-09-23T05:37:14.205Z,7.53
2022-09-23T05:42:16.615Z,7.71
2022-09-23T05:47:18.393Z,7.84
2022-09-23T05:52:19.963Z,7.99
2022-09-23T05:57:21.543Z,8.19
2022-09-23T06:02:23.643Z,8.39
2022-09-23T06:07:25.476Z,8.53
2022-09-23T06:12:27.039Z,8.69
2022-09-23T06:17:28.626Z,8.85
2022-09-23T06:22:30.275Z,9.05
2022-09-23T06:27:31.946Z,9.24
2022-09-23T06:32:33.558Z,9.43
2022-09-23T06:37:35.221Z,9.62
2022-09-23T06:42:36.996Z,9.83
2022-09-23T06:47:39.376Z,10.04
2022-09-23T06:52:42.098Z,10.15
2022-09-23T06:57:43.893Z,10.34
2022-09-23T07:02:45.773Z,10.50
2022-09-23T07:07:47.810Z,10.65
2022-09-23T07:12:49.530Z,10.62
2022-09-23T07:17:51.149Z,10.87
2022-09-23T07:22:52.989Z,11.09
2022-09-23T07:27:56.264Z,11.35
2022-09-23T07:32:57.870Z,11.56
2022-09-23T07:38:00.737Z,11.61
2022-09-23T07:43:04.624Z,11.84
2022-09-23T07:48:06.761Z,11.81
2022-09-23T07:53:08.554Z,11.72
2022-09-23T07:58:10.160Z,12.05
2022-09-23T08:03:11.954Z,12.36
2022-09-23T08:08:14.182Z,12.57
2022-09-23T08:13:15.768Z,12.53
2022-09-23T08:18:17.354Z,12.60
2022-09-23T08:23:20.483Z,12.49
2022-09-23T08:28:22.956Z,12.84
2022-09-23T08:33:24.605Z,13.08
2022-09-23T08:38:26.676Z,13.15
2022-09-23T08:43:34.289Z,13.19
2022-09-23T08:48:48.228Z,13.23
2022-09-23T08:53:50.348Z,13.42
2022-09-23T08:59:10.428Z,13.61
2022-09-23T09:04:20.826Z,13.81
2022-09-23T09:09:30.317Z,13.74
2022-09-23T09:14:43.260Z,13.82
2022-09-23T09:19:56.002Z,13.96
2022-09-23T09:25:05.936Z,14.22
2022-09-23T09:30:14.617Z,14.21
2022-09-23T09:35:27.394Z,14.27
2022-09-23T09:40:29.343Z,14.00
2022-09-23T09:45:57.586Z,14.08
2022-09-23T09:51:18.784Z,14.32
2022-09-23T09:56:29.910Z,14.45
2022-09-23T10:01:33.720Z,14.56
2022-09-23T10:06:36.173Z,14.69
2022-09-23T10:11:38.522Z,14.89
2022-09-23T10:16:42.209Z,14.96
2022-09-23T10:21:50.314Z,15.16
2022-09-23T10:27:00.877Z,15.15
2022-09-23T10:32:33.761Z,15.00
2022-09-23T10:37:45.477Z,15.22
2022-09-23T10:43:50.995Z,15.61
2022-09-23T10:49:22.722Z,15.76
2022-09-23T10:54:33.333Z,15.85
2022-09-23T10:59:57.849Z,16.01
2022-09-23T11:05:21.319Z,15.81
2022-09-23T11:10:45.818Z,16.00
2022-09-23T11:16:26.838Z,16.14
2022-09-23T11:21:37.157Z,16.13
2022-09-23T11:27:01.238Z,16.40
2022-09-23T11:32:08.996Z,16.63
2022-09-23T11:37:18.792Z,16.64
2022-09-23T11:42:26.333Z,17.02
2022-09-23T11:47:43.960Z,16.40
2022-09-23T11:52:58.622Z,16.69
2022-09-23T11:58:25.206Z,16.86
2022-09-23T12:03:48.183Z,16.65
2022-09-23T12:09:01.476Z,16.59
2022-09-23T12:14:28.714Z,16.78
2022-09-23T12:19:39.587Z,16.74
2022-09-23T12:25:10.534Z,16.99
2022-09-23T12:30:16.810Z,16.83
2022-09-23T12:35:27.633Z,16.80
2022-09-23T12:40:34.647Z,16.83
2022-09-23T12:45:39.616Z,16.88
2022-09-23T12:51:03.092Z,17.34
2022-09-23T12:56:20.492Z,17.70
2022-09-23T13:01:24.759Z,17.88
2022-09-23T13:06:40.124Z,18.04
2022-09-23T13:11:45.281Z,17.57
2022-09-23T13:16:48.003Z,17.64
2022-09-23T13:21:51.312Z,17.92
2022-09-23T13:26:55.984Z,18.07
2022-09-23T13:31:58.074Z,17.53
2022-09-23T13:37:31.468Z,18.00
2022-09-23T13:42:40.587Z,17.77
2022-09-23T13:47:44.071Z,18.07
2022-09-23T13:52:47.090Z,17.72
2022-09-23T13:57:57.749Z,17.87
2022-09-23T14:02:59.426Z,18.00
2022-09-23T14:08:01.506Z,17.69
2022-09-23T14:13:03.185Z,17.93
2022-09-23T14:18:07.464Z,18.05
2022-09-23T14:23:16.256Z,17.87
2022-09-23T14:28:20.507Z,17.68
2022-09-23T14:33:32.197Z,17.50
2022-09-23T14:38:52.262Z,17.56
2022-09-23T14:43:59.673Z,17.64
2022-09-23T14:49:10.570Z,17.50
2022-09-23T14:54:44.843Z,17.55
2022-09-23T14:59:54.537Z,17.68
2022-09-23T15:05:15.678Z,17.59
2022-09-23T15:10:23.570Z,17.46
2022-09-23T15:15:28.314Z,17.47
2022-09-23T15:20:30.310Z,17.53
2022-09-23T15:25:35.606Z,17.31
2022-09-23T15:30:39.054Z,17.08
2022-09-23T15:35:46.490Z,17.16
2022-09-23T15:40:49.175Z,17.14
2022-09-23T15:45:57.643Z,17.18
2022-09-23T15:51:05.169Z,16.98
2022-09-23T15:56:06.824Z,16.93
2022-09-23T16:01:17.652Z,16.89
2022-09-23T16:06:20.470Z,16.90
2022-09-23T16:11:25.790Z,16.87
2022-09-23T16:16:28.013Z,16.77
2022-09-23T16:21:29.914Z,16.60
2022-09-23T16:26:37.082Z,16.43
2022-09-23T16:31:39.241Z,16.22
2022-09-23T16:36:43.044Z,16.14
2022-09-23T16:41:44.699Z,16.06
2022-09-23T16:46:46.311Z,15.93
2022-09-23T16:51:48.477Z,15.81
2022-09-23T16:56:50.461Z,15.65
2022-09-23T17:02:10.429Z,15.54
2022-09-23T17:07:12.350Z,15.27
2022-09-23T17:12:25.929Z,14.95
2022-09-23T17:17:28.738Z,14.88
2022-09-23T17:22:30.706Z,14.91
2022-09-23T17:27:32.601Z,14.87
2022-09-23T17:32:34.466Z,14.78
2022-09-23T17:37:37.218Z,14.63
2022-09-23T17:42:41.467Z,14.44
2022-09-23T17:47:43.074Z,14.38
2022-09-23T17:52:44.679Z,14.29
2022-09-23T17:57:50.831Z,14.18
2022-09-23T18:02:52.686Z,14.07
2022-09-23T18:07:54.291Z,13.95
2022-09-23T18:12:55.915Z,13.87
2022-09-23T18:17:57.680Z,13.68
2022-09-23T18:22:59.432Z,13.61
2022-09-23T18:28:01.555Z,13.47
2022-09-23T18:33:03.765Z,13.32
2022-09-23T18:38:05.349Z,13.23
2022-09-23T18:43:07.285Z,13.13
2022-09-23T18:48:27.620Z,12.98
2022-09-23T18:53:29.210Z,12.80
2022-09-23T18:58:32.425Z,12.65
2022-09-23T19:03:37.524Z,12.55
2022-09-23T19:08:40.012Z,11.91
2022-09-23T19:13:42.192Z,11.88
2022-09-23T19:18:46.437Z,12.08
2022-09-23T19:23:50.955Z,12.13
2022-09-23T19:28:57.213Z,11.46
2022-09-23T19:34:01.175Z,11.57
2022-09-23T19:39:05.643Z,11.74
2022-09-23T19:44:07.954Z,11.71
2022-09-23T19:49:11.101Z,11.33
2022-09-23T19:54:20.677Z,11.52
2022-09-23T19:59:22.663Z,11.57
2022-09-23T20:04:24.331Z,11.57
2022-09-23T20:09:27.260Z,11.35
2022-09-23T20:14:28.848Z,11.33
2022-09-23T20:19:30.938Z,11.23
2022-09-23T20:24:32.545Z,10.72
2022-09-23T20:29:34.607Z,10.88
2022-09-23T20:34:36.184Z,10.87
2022-09-23T20:39:38.006Z,10.96
2022-09-23T20:44:44.156Z,10.92
2022-09-23T20:49:46.390Z,10.80
2022-09-23T20:54:50.337Z,10.52
2022-09-23T20:59:51.894Z,9.95
2022-09-23T21:04:55.791Z,9.65
2022-09-23T21:09:57.445Z,9.11
2022-09-23T21:14:59.416Z,9.23
2022-09-23T21:20:01.458Z,9.34
2022-09-23T21:25:26.838Z,8.59
2022-09-23T21:30:25.564Z,8.63
2022-09-23T21:35:27.523Z,8.42
2022-09-23T21:40:47.765Z,8.60
2022-09-23T21:45:56.979Z,8.59
2022-09-23T21:50:59.666Z,8.72
2022-09-23T21:56:05.358Z,8.60
2022-09-23T22:01:09.773Z,8.56
2022-09-23T22:06:20.270Z,8.95
2022-09-23T22:11:42.713Z,9.19
2022-09-23T22:16:44.479Z,9.42
2022-09-23T22:21:46.650Z,9.56
2022-09-23T22:26:48.333Z,9.61
2022-09-23T22:32:14.885Z,9.62
2022-09-23T22:37:30.480Z,9.69
2022-09-23T22:42:32.700Z,9.71
2022-09-23T22:47:38.681Z,9.74
2022-09-23T22:52:41.151Z,9.71
2022-09-23T22:57:42.961Z,9.69
2022-09-23T23:02:44.574Z,9.65
2022-09-23T23:07:46.374Z,9.50
2022-09-23T23:12:49.163Z,9.60
2022-09-23T23:17:53.758Z,9.59
2022-09-23T23:22:55.823Z,9.61
2022-09-23T23:27:57.904Z,9.54
2022-09-23T23:32:59.707Z,9.57
2022-09-23T23:38:01.401Z,9.57
2022-09-23T23:43:05.211Z,9.55
2022-09-23T23:48:06.766Z,9.49
2022-09-23T23:53:11.892Z,9.47
2022-09-23T23:58:14.936Z,9.39
